Main page
METAR-TAF:

METAR-TAF

Airports :

Göteborg City Airport

Gothenburg, Sweden

latitude: 57-47N, longitude: 011-53E, elevation: 20 m

Current weather observation

The report was made 22 minutes ago, at 02:20 UTC
Wind 9 kt from the Southeast
Temperature 4°C
Humidity 81%
Pressure 1006 hPa
Visibility 10 km or more

METAR: ESGP 010220Z AUTO 14009KT 9999 OVC110/// 04/01 Q1006

Time: 03:42 (02:42 UTC)

Forecast

The report was made 12 hours and 12 minutes ago, at 14:30 UTC
Forecast valid from 29 at 15 UTC to 29 at 19 UTC
Wind 17 kt from the South with gusts up to 32 kt
Visibility 10 km or more
Overcast at a height of 3000 ft
light rain
Temporary
from 29 at 15 UTC to 29 at 19 UTC
Visibility: 4000 m
Broken clouds at a height of 900 ft
rain,

TAF: ESGP 291430Z 2915/2919 17017G32KT 9999 -RA OVC030 TEMPO 2915/2919 4000 RA BKN009

Weather observations and forecasts of more than 4000 airports (METAR and TAF reports).

The available stations are represented by yellow and red dots on the map.

Hover mouse over dot to see the name of the station.

Then click to see weather observations and forecasts.

To change the map : click on the green buttons with a black cross to zoom in, on the green button with a dash to zoom out, or on the green arrows for adjacent maps.


METAR-TAF: